createdAt,value
2023-12-29T00:00:08.726Z,100521.81
2023-12-29T00:02:36.800Z,100529.25
2023-12-29T00:05:06.072Z,100525.16
2023-12-29T00:07:35.039Z,100525.81
2023-12-29T00:10:03.457Z,100525.91
2023-12-29T00:12:33.029Z,100511.31
2023-12-29T00:15:01.255Z,100497.09
2023-12-29T00:17:33.458Z,100515.41
2023-12-29T00:20:01.888Z,100519.06
2023-12-29T00:22:30.026Z,100523.47
2023-12-29T00:24:58.232Z,100510.97
2023-12-29T00:27:28.919Z,100522.31
2023-12-29T00:29:58.497Z,100520.53
2023-12-29T00:32:26.853Z,100510.16
2023-12-29T00:34:55.300Z,100502.13
2023-12-29T00:37:23.474Z,100504.44
2023-12-29T00:39:52.434Z,100486.25
2023-12-29T00:42:20.648Z,100489.81
2023-12-29T00:44:48.831Z,100475.00
2023-12-29T00:47:20.697Z,100486.47
2023-12-29T00:49:49.114Z,100483.75
2023-12-29T00:52:17.334Z,100496.75
2023-12-29T00:54:45.568Z,100479.09
2023-12-29T00:57:13.888Z,100491.00
2023-12-29T00:59:45.148Z,100485.66
2023-12-29T01:02:13.373Z,100487.34
2023-12-29T01:04:43.057Z,100482.09
2023-12-29T01:07:11.760Z,100474.94
2023-12-29T01:09:41.367Z,100475.75
2023-12-29T01:12:09.636Z,100471.59
2023-12-29T01:14:38.057Z,100485.66
2023-12-29T01:17:06.218Z,100480.41
2023-12-29T01:19:34.485Z,100470.09
2023-12-29T01:22:04.032Z,100463.16
2023-12-29T01:24:39.951Z,100452.03
2023-12-29T01:27:11.240Z,100458.31
2023-12-29T01:29:40.949Z,100466.63
2023-12-29T01:32:09.476Z,100467.78
2023-12-29T01:34:40.471Z,100462.69
2023-12-29T01:37:10.143Z,100468.16
2023-12-29T01:39:38.498Z,100475.31
2023-12-29T01:42:06.859Z,100466.69
2023-12-29T01:44:35.211Z,100464.88
2023-12-29T01:47:03.684Z,100477.09
2023-12-29T01:49:32.521Z,100465.84
2023-12-29T01:52:02.590Z,100461.66
2023-12-29T01:54:35.420Z,100465.97
2023-12-29T01:57:04.761Z,100467.84
2023-12-29T01:59:33.045Z,100454.00
2023-12-29T02:02:01.450Z,100453.03
2023-12-29T02:04:30.821Z,100460.78
2023-12-29T02:06:59.366Z,100459.56
2023-12-29T02:09:29.303Z,100457.22
2023-12-29T02:11:59.005Z,100461.66
2023-12-29T02:14:27.365Z,100474.00
2023-12-29T02:17:04.482Z,100471.38
2023-12-29T02:19:52.220Z,100473.19
2023-12-29T02:22:20.718Z,100471.59
2023-12-29T02:24:50.695Z,100479.69
2023-12-29T02:27:31.435Z,100472.03
2023-12-29T02:30:11.666Z,100475.69
2023-12-29T02:32:44.685Z,100464.97
2023-12-29T02:35:16.103Z,100455.72
2023-12-29T02:37:44.953Z,100455.72
2023-12-29T02:40:16.549Z,100441.31
2023-12-29T02:42:49.601Z,100449.19
2023-12-29T02:45:18.135Z,100443.22
2023-12-29T02:47:46.895Z,100452.94
2023-12-29T02:50:15.169Z,100452.00
2023-12-29T02:52:43.253Z,100460.00
2023-12-29T02:55:11.656Z,100457.38
2023-12-29T02:57:41.785Z,100446.03
2023-12-29T03:00:10.718Z,100446.03
2023-12-29T03:02:39.028Z,100439.09
2023-12-29T03:05:08.325Z,100443.41
2023-12-29T03:07:37.731Z,100435.53
2023-12-29T03:10:07.046Z,100437.22
2023-12-29T03:12:35.240Z,100430.81
2023-12-29T03:15:05.178Z,100438.06
2023-12-29T03:17:33.380Z,100431.03
2023-12-29T03:20:01.574Z,100430.31
2023-12-29T03:22:29.853Z,100430.09
2023-12-29T03:24:58.017Z,100423.81
2023-12-29T03:27:26.212Z,100436.16
2023-12-29T03:29:54.360Z,100436.72
2023-12-29T03:32:23.897Z,100439.34
2023-12-29T03:34:52.245Z,100443.44
2023-12-29T03:37:20.520Z,100433.06
2023-12-29T03:39:48.658Z,100432.22
2023-12-29T03:42:16.877Z,100440.00
2023-12-29T03:44:44.992Z,100438.31
2023-12-29T03:47:13.225Z,100434.75
2023-12-29T03:49:42.911Z,100433.81
2023-12-29T03:52:11.224Z,100435.34
2023-12-29T03:54:39.355Z,100441.25
2023-12-29T03:57:07.494Z,100434.53
2023-12-29T03:59:38.722Z,100426.56
2023-12-29T04:02:07.353Z,100430.75
2023-12-29T04:04:39.324Z,100432.44
2023-12-29T04:07:11.016Z,100440.09
2023-12-29T04:09:39.157Z,100438.41
2023-12-29T04:12:07.793Z,100428.69
2023-12-29T04:14:35.942Z,100431.19
2023-12-29T04:17:05.401Z,100428.47
2023-12-29T04:19:33.745Z,100430.88
2023-12-29T04:22:01.887Z,100434.16
2023-12-29T04:24:31.621Z,100433.94
2023-12-29T04:27:02.661Z,100437.53
2023-12-29T04:29:31.013Z,100432.56
2023-12-29T04:31:59.156Z,100429.13
2023-12-29T04:34:27.405Z,100425.63
2023-12-29T04:36:55.694Z,100434.47
2023-12-29T04:39:23.913Z,100434.47
2023-12-29T04:41:53.464Z,100441.47
2023-12-29T04:44:21.926Z,100444.97
2023-12-29T04:46:50.031Z,100446.63
2023-12-29T04:49:20.843Z,100435.19
2023-12-29T04:51:49.740Z,100448.97
2023-12-29T04:54:17.947Z,100452.63
2023-12-29T04:56:46.141Z,100447.47
2023-12-29T04:59:18.011Z,100448.41
2023-12-29T05:01:46.500Z,100459.34
2023-12-29T05:04:16.058Z,100441.91
2023-12-29T05:06:44.737Z,100453.88
2023-12-29T05:09:12.999Z,100447.91
2023-12-29T05:11:41.582Z,100444.44
2023-12-29T05:14:09.808Z,100454.09
2023-12-29T05:16:39.309Z,100442.66
2023-12-29T05:19:07.535Z,100440.88
2023-12-29T05:21:35.668Z,100440.75
2023-12-29T05:24:05.233Z,100445.19
2023-12-29T05:26:33.535Z,100447.81
2023-12-29T05:29:01.700Z,100432.06
2023-12-29T05:31:29.962Z,100445.41
2023-12-29T05:33:59.712Z,100442.13
2023-12-29T05:36:27.951Z,100451.59
2023-12-29T05:38:56.105Z,100451.59
2023-12-29T05:41:24.336Z,100450.09
2023-12-29T05:43:52.514Z,100451.88
2023-12-29T05:46:20.751Z,100466.69
2023-12-29T05:48:49.524Z,100464.16
2023-12-29T05:51:19.387Z,100446.00
2023-12-29T05:53:47.551Z,100465.31
2023-12-29T05:56:16.539Z,100462.91
2023-12-29T05:58:47.845Z,100464.88
2023-12-29T06:01:16.179Z,100464.88
2023-12-29T06:03:47.336Z,100451.84
2023-12-29T06:06:15.724Z,100448.41
2023-12-29T06:08:45.277Z,100467.72
2023-12-29T06:11:17.266Z,100468.84
2023-12-29T06:13:45.541Z,100457.69
2023-12-29T06:16:19.989Z,100474.38
2023-12-29T06:18:48.507Z,100459.59
2023-12-29T06:21:19.549Z,100452.66
2023-12-29T06:23:49.227Z,100455.19
2023-12-29T06:26:18.474Z,100464.09
2023-12-29T06:28:46.951Z,100459.50
2023-12-29T06:31:16.029Z,100458.13
2023-12-29T06:33:44.850Z,100458.19
2023-12-29T06:36:14.214Z,100451.81
2023-12-29T06:38:42.426Z,100444.03
2023-12-29T06:41:12.397Z,100450.44
2023-12-29T06:43:40.583Z,100441.72
2023-12-29T06:46:10.042Z,100446.97
2023-12-29T06:48:39.189Z,100455.41
2023-12-29T06:51:07.684Z,100452.13
2023-12-29T06:53:35.852Z,100452.88
2023-12-29T06:56:04.045Z,100462.41
2023-12-29T06:58:34.528Z,100469.44
2023-12-29T07:01:03.020Z,100465.13
2023-12-29T07:03:31.350Z,100471.13
2023-12-29T07:05:59.706Z,100462.50
2023-12-29T07:08:27.920Z,100469.09
2023-12-29T07:10:56.127Z,100464.78
2023-12-29T07:13:24.794Z,100466.13
2023-12-29T07:15:57.256Z,100463.91
2023-12-29T07:18:25.812Z,100458.94
2023-12-29T07:20:54.016Z,100465.13
2023-12-29T07:23:22.260Z,100446.31
2023-12-29T07:25:50.903Z,100442.13
2023-12-29T07:28:19.143Z,100447.47
2023-12-29T07:30:47.573Z,100447.75
2023-12-29T07:33:17.579Z,100443.75
2023-12-29T07:35:46.003Z,100449.38
2023-12-29T07:38:17.147Z,100440.56
2023-12-29T07:40:45.407Z,100435.44
2023-12-29T07:43:13.618Z,100436.38
2023-12-29T07:45:42.286Z,100433.75
2023-12-29T07:48:11.386Z,100425.88
2023-12-29T07:50:41.752Z,100423.38
2023-12-29T07:53:11.544Z,100414.56
2023-12-29T07:55:40.873Z,100421.47
2023-12-29T07:58:11.351Z,100421.66
2023-12-29T08:00:39.982Z,100414.75
2023-12-29T08:03:08.758Z,100404.09
2023-12-29T08:05:37.212Z,100415.50
2023-12-29T08:08:07.431Z,100425.78
2023-12-29T08:10:36.726Z,100421.41
2023-12-29T08:13:05.391Z,100431.03
2023-12-29T08:15:33.509Z,100437.19
2023-12-29T08:18:02.049Z,100438.78
2023-12-29T08:20:30.275Z,100432.81
2023-12-29T08:22:59.213Z,100438.69
2023-12-29T08:25:28.681Z,100431.59
2023-12-29T08:27:57.207Z,100435.78
2023-12-29T08:30:25.384Z,100437.38
2023-12-29T08:32:53.789Z,100453.84
2023-12-29T08:35:22.004Z,100453.84
2023-12-29T08:37:50.135Z,100444.84
2023-12-29T08:40:18.488Z,100448.38
2023-12-29T08:42:48.037Z,100447.34
2023-12-29T08:45:16.365Z,100463.75
2023-12-29T08:47:44.762Z,100459.88
2023-12-29T08:50:12.961Z,100463.38
2023-12-29T08:52:41.329Z,100463.38
2023-12-29T08:55:11.176Z,100460.53
2023-12-29T08:57:40.826Z,100457.72
2023-12-29T09:00:14.162Z,100457.63
2023-12-29T09:02:42.695Z,100451.34
2023-12-29T09:05:10.968Z,100446.84
2023-12-29T09:07:39.229Z,100450.19
2023-12-29T09:10:09.472Z,100442.22
2023-12-29T09:12:37.929Z,100445.50
2023-12-29T09:15:09.891Z,100441.72
2023-12-29T09:17:39.415Z,100445.19
2023-12-29T09:20:11.115Z,100448.66
2023-12-29T09:22:40.185Z,100452.00
2023-12-29T09:25:08.728Z,100459.78
2023-12-29T09:27:37.081Z,100468.50
2023-12-29T09:30:07.009Z,100471.88
2023-12-29T09:32:35.514Z,100468.19
2023-12-29T09:35:08.445Z,100462.75
2023-12-29T09:37:36.823Z,100471.47
2023-12-29T09:40:09.129Z,100460.88
2023-12-29T09:42:39.893Z,100472.31
2023-12-29T09:45:12.628Z,100472.09
2023-12-29T09:47:41.507Z,100477.44
2023-12-29T09:50:13.649Z,100474.72
2023-12-29T09:52:42.972Z,100485.97
2023-12-29T09:55:12.473Z,100485.75
2023-12-29T09:57:40.851Z,100486.53
2023-12-29T10:00:13.339Z,100484.63
2023-12-29T10:02:41.861Z,100485.88
2023-12-29T10:05:11.954Z,100491.25
2023-12-29T10:07:41.400Z,100486.00
2023-12-29T10:10:15.247Z,100493.75
2023-12-29T10:12:44.478Z,100491.91
2023-12-29T10:15:17.336Z,100490.84
2023-12-29T10:17:54.730Z,100481.19
2023-12-29T10:20:35.458Z,100486.03
2023-12-29T10:23:09.662Z,100490.16
2023-12-29T10:25:38.235Z,100484.03
2023-12-29T10:28:07.655Z,100495.28
2023-12-29T10:30:36.058Z,100493.59
2023-12-29T10:33:05.825Z,100501.59
2023-12-29T10:35:39.000Z,100501.38
2023-12-29T10:38:13.147Z,100499.50
2023-12-29T10:40:45.152Z,100498.47
2023-12-29T10:43:13.423Z,100503.72
2023-12-29T10:45:44.017Z,100505.28
2023-12-29T10:48:25.405Z,100499.81
2023-12-29T10:50:55.069Z,100495.94
2023-12-29T10:53:26.014Z,100495.72
2023-12-29T10:55:54.093Z,100498.47
2023-12-29T10:58:22.807Z,100500.97
2023-12-29T11:00:51.016Z,100493.00
2023-12-29T11:03:20.319Z,100507.72
2023-12-29T11:05:54.832Z,100499.81
2023-12-29T11:08:24.369Z,100502.06
2023-12-29T11:10:53.095Z,100509.59
2023-12-29T11:13:21.449Z,100513.00
2023-12-29T11:15:50.291Z,100509.09
2023-12-29T11:18:19.829Z,100509.75
2023-12-29T11:20:48.769Z,100521.72
2023-12-29T11:23:16.896Z,100511.22
2023-12-29T11:25:48.161Z,100516.91
2023-12-29T11:28:17.007Z,100511.63
2023-12-29T11:30:45.498Z,100515.72
2023-12-29T11:33:21.094Z,100498.88
2023-12-29T11:35:55.261Z,100505.22
2023-12-29T11:38:42.878Z,100492.59
2023-12-29T11:41:20.175Z,100495.75
2023-12-29T11:43:58.836Z,100504.56
2023-12-29T11:46:45.436Z,100501.00
2023-12-29T11:49:17.584Z,100499.03
2023-12-29T11:51:50.582Z,100504.19
2023-12-29T11:54:25.706Z,100498.94
2023-12-29T11:56:56.735Z,100500.72
2023-12-29T11:59:28.732Z,100507.53
2023-12-29T12:01:58.403Z,100502.19
2023-12-29T12:04:42.023Z,100501.44
2023-12-29T12:07:18.347Z,100506.47
2023-12-29T12:09:50.620Z,100499.22
2023-12-29T12:12:41.866Z,100508.59
2023-12-29T12:15:35.855Z,100498.06
2023-12-29T12:18:07.489Z,100504.03
2023-12-29T12:20:36.789Z,100505.84
2023-12-29T12:23:12.866Z,100492.06
2023-12-29T12:25:41.665Z,100498.91
2023-12-29T12:28:12.571Z,100505.84
2023-12-29T12:30:40.769Z,100497.94
2023-12-29T12:33:12.546Z,100499.75
2023-12-29T12:35:41.145Z,100498.78
2023-12-29T12:38:10.598Z,100499.63
2023-12-29T12:40:39.210Z,100493.63
2023-12-29T12:43:07.998Z,100493.53
2023-12-29T12:45:44.873Z,100485.63
2023-12-29T12:48:21.219Z,100487.13
2023-12-29T12:50:50.541Z,100481.00
2023-12-29T12:53:22.225Z,100481.34
2023-12-29T12:55:51.995Z,100475.97
2023-12-29T12:58:23.529Z,100476.63
2023-12-29T13:00:55.723Z,100479.25
2023-12-29T13:03:25.303Z,100474.81
2023-12-29T13:05:55.108Z,100468.91
2023-12-29T13:08:30.293Z,100474.91
2023-12-29T13:11:03.587Z,100483.75
2023-12-29T13:13:39.456Z,100477.97
2023-12-29T13:16:09.358Z,100479.78
2023-12-29T13:18:37.936Z,100474.50
2023-12-29T13:21:06.433Z,100461.47
2023-12-29T13:23:34.951Z,100455.06
2023-12-29T13:26:07.881Z,100460.50
2023-12-29T13:28:39.710Z,100461.69
2023-12-29T13:31:14.432Z,100463.13
2023-12-29T13:33:54.948Z,100459.03
2023-12-29T13:36:31.711Z,100465.06
2023-12-29T13:39:08.608Z,100466.22
2023-12-29T13:41:38.552Z,100460.22
2023-12-29T13:44:07.990Z,100469.25
2023-12-29T13:46:38.971Z,100468.41
2023-12-29T13:49:09.243Z,100461.56
2023-12-29T13:51:38.114Z,100459.69
2023-12-29T13:54:06.304Z,100445.91
2023-12-29T13:56:34.691Z,100448.75
2023-12-29T13:59:08.586Z,100444.22
2023-12-29T14:01:41.845Z,100443.50
2023-12-29T14:04:14.329Z,100424.78
2023-12-29T14:06:51.813Z,100423.09
2023-12-29T14:09:20.673Z,100422.47
2023-12-29T14:11:49.206Z,100427.00
2023-12-29T14:14:24.705Z,100425.22
2023-12-29T14:16:54.526Z,100424.69
2023-12-29T14:19:22.861Z,100427.09
2023-12-29T14:21:53.942Z,100428.50
2023-12-29T14:24:23.344Z,100427.53
2023-12-29T14:27:00.267Z,100430.59
2023-12-29T14:29:28.876Z,100434.50
2023-12-29T14:32:01.394Z,100435.44
2023-12-29T14:34:29.490Z,100445.09
2023-12-29T14:36:57.745Z,100442.56
2023-12-29T14:39:25.860Z,100442.16
2023-12-29T14:41:54.467Z,100457.06
2023-12-29T14:44:22.811Z,100428.72
2023-12-29T14:46:50.901Z,100449.28
2023-12-29T14:49:20.745Z,100445.28
2023-12-29T14:51:48.945Z,100435.84
2023-12-29T14:54:17.118Z,100438.97
2023-12-29T14:56:45.225Z,100432.66
2023-12-29T14:59:15.997Z,100430.03
2023-12-29T15:01:44.154Z,100427.81
2023-12-29T15:04:13.629Z,100425.28
2023-12-29T15:06:44.672Z,100411.41
2023-12-29T15:09:12.924Z,100417.69
2023-12-29T15:11:41.053Z,100418.00
2023-12-29T15:14:09.149Z,100410.25
2023-12-29T15:16:37.400Z,100407.09
2023-12-29T15:19:06.799Z,100405.22
2023-12-29T15:21:34.931Z,100407.09
2023-12-29T15:24:04.526Z,100404.47
2023-12-29T15:26:35.380Z,100402.88
2023-12-29T15:29:03.856Z,100403.72
2023-12-29T15:31:31.986Z,100395.00
2023-12-29T15:34:00.210Z,100390.78
2023-12-29T15:36:28.452Z,100379.38
2023-12-29T15:38:56.913Z,100376.03
2023-12-29T15:41:26.393Z,100373.41
2023-12-29T15:43:57.303Z,100368.34
2023-12-29T15:46:25.504Z,100369.38
2023-12-29T15:48:58.782Z,100369.47
2023-12-29T15:51:30.868Z,100365.09
2023-12-29T15:53:59.018Z,100370.22
2023-12-29T15:56:31.347Z,100370.22
2023-12-29T15:58:59.513Z,100368.44
2023-12-29T16:01:29.337Z,100359.75
2023-12-29T16:03:59.773Z,100369.19
2023-12-29T16:06:29.113Z,100360.34
2023-12-29T16:08:58.108Z,100367.28
2023-12-29T16:11:28.110Z,100370.34
2023-12-29T16:13:59.206Z,100359.84
2023-12-29T16:16:31.110Z,100356.38
2023-12-29T16:18:59.774Z,100351.22
2023-12-29T16:21:30.547Z,100343.47
2023-12-29T16:23:59.433Z,100347.22
2023-12-29T16:26:35.866Z,100345.25
2023-12-29T16:29:12.116Z,100348.91
2023-12-29T16:31:40.429Z,100340.19
2023-12-29T16:34:11.093Z,100355.19
2023-12-29T16:36:40.141Z,100337.78
2023-12-29T16:39:11.111Z,100342.91
2023-12-29T16:41:39.777Z,100340.63
2023-12-29T16:44:08.952Z,100335.56
2023-12-29T16:46:38.486Z,100333.03
2023-12-29T16:49:06.722Z,100331.38
2023-12-29T16:51:34.906Z,100335.66
2023-12-29T16:54:04.514Z,100334.94
2023-12-29T16:56:32.639Z,100339.34
2023-12-29T16:59:01.786Z,100330.81
2023-12-29T17:01:29.945Z,100327.44
2023-12-29T17:03:59.529Z,100324.81
2023-12-29T17:06:28.574Z,100324.09
2023-12-29T17:08:56.764Z,100329.25
2023-12-29T17:11:24.879Z,100330.06
2023-12-29T17:13:53.657Z,100331.97
2023-12-29T17:16:25.839Z,100327.75
2023-12-29T17:18:55.245Z,100328.59
2023-12-29T17:21:25.601Z,100322.31
2023-12-29T17:23:53.771Z,100335.31
2023-12-29T17:26:22.474Z,100342.56
2023-12-29T17:28:52.288Z,100376.91
2023-12-29T17:31:20.651Z,100389.75
2023-12-29T17:33:51.953Z,100345.50
2023-12-29T17:36:20.167Z,100347.41
2023-12-29T17:38:49.670Z,100349.69
2023-12-29T17:41:19.535Z,100366.63
2023-12-29T17:43:48.045Z,100375.41
2023-12-29T17:46:16.315Z,100374.69
2023-12-29T17:48:44.980Z,100398.25
2023-12-29T17:51:13.321Z,100406.56
2023-12-29T17:53:45.158Z,100420.19
2023-12-29T17:56:14.905Z,100411.38
2023-12-29T17:58:43.066Z,100422.91
2023-12-29T18:01:15.403Z,100415.69
2023-12-29T18:03:44.061Z,100427.00
2023-12-29T18:06:13.727Z,100434.84
2023-12-29T18:08:42.501Z,100444.81
2023-12-29T18:11:10.994Z,100453.09
2023-12-29T18:13:40.569Z,100463.75
2023-12-29T18:16:12.181Z,100444.53
2023-12-29T18:18:43.515Z,100443.84
2023-12-29T18:21:17.017Z,100444.94
2023-12-29T18:23:46.226Z,100459.53
2023-12-29T18:26:14.705Z,100468.31
2023-12-29T18:28:45.283Z,100447.41
2023-12-29T18:31:14.270Z,100469.31
2023-12-29T18:33:44.994Z,100471.94
2023-12-29T18:36:13.751Z,100473.03
2023-12-29T18:38:41.801Z,100479.94
2023-12-29T18:41:11.988Z,100486.84
2023-12-29T18:43:40.232Z,100484.22
2023-12-29T18:46:10.591Z,100484.13
2023-12-29T18:48:40.291Z,100494.69
2023-12-29T18:51:08.488Z,100500.91
2023-12-29T18:53:36.722Z,100492.41
2023-12-29T18:56:07.423Z,100495.03
2023-12-29T18:58:35.643Z,100506.41
2023-12-29T19:01:04.505Z,100502.09
2023-12-29T19:03:36.159Z,100495.03
2023-12-29T19:06:05.815Z,100497.03
2023-12-29T19:08:34.204Z,100491.03
2023-12-29T19:11:02.406Z,100489.50
2023-12-29T19:13:31.646Z,100489.69
2023-12-29T19:16:01.245Z,100503.84
2023-12-29T19:18:29.688Z,100502.13
2023-12-29T19:20:59.325Z,100493.56
2023-12-29T19:23:29.508Z,100504.19
2023-12-29T19:25:57.915Z,100507.00
2023-12-29T19:28:27.208Z,100521.00
2023-12-29T19:30:55.489Z,100516.63
2023-12-29T19:33:24.226Z,100508.97
2023-12-29T19:35:52.383Z,100516.34
2023-12-29T19:38:24.047Z,100510.19
2023-12-29T19:40:53.818Z,100518.97
2023-12-29T19:43:23.263Z,100527.63
2023-12-29T19:45:54.103Z,100522.50
2023-12-29T19:48:22.398Z,100532.03
2023-12-29T19:50:50.526Z,100543.38
2023-12-29T19:53:22.778Z,100541.06
2023-12-29T19:55:53.287Z,100540.16
2023-12-29T19:58:21.640Z,100534.16
2023-12-29T20:00:49.961Z,100532.47
2023-12-29T20:03:23.076Z,100528.78
2023-12-29T20:05:52.983Z,100529.53
2023-12-29T20:08:23.119Z,100526.78
2023-12-29T20:10:51.761Z,100517.09
2023-12-29T20:13:22.737Z,100502.88
2023-12-29T20:15:53.285Z,100508.97
2023-12-29T20:18:21.545Z,100511.16
2023-12-29T20:20:49.627Z,100505.00
2023-12-29T20:23:17.837Z,100506.38
2023-12-29T20:25:47.431Z,100503.63
2023-12-29T20:28:15.612Z,100499.66
2023-12-29T20:30:43.961Z,100506.22
2023-12-29T20:33:12.571Z,100520.06
2023-12-29T20:35:41.189Z,100518.97
2023-12-29T20:38:09.292Z,100511.13
2023-12-29T20:40:37.361Z,100510.13
2023-12-29T20:43:06.974Z,100527.31
2023-12-29T20:45:35.105Z,100516.69
2023-12-29T20:48:03.248Z,100537.53
2023-12-29T20:50:31.439Z,100539.22
2023-12-29T20:52:59.639Z,100555.22
2023-12-29T20:55:27.869Z,100548.38
2023-12-29T20:57:56.044Z,100557.25
2023-12-29T21:00:25.966Z,100540.63
2023-12-29T21:02:54.085Z,100541.63
2023-12-29T21:05:22.587Z,100528.81
2023-12-29T21:07:50.722Z,100528.13
2023-12-29T21:10:21.077Z,100515.94
2023-12-29T21:12:49.875Z,100524.78
2023-12-29T21:15:18.004Z,100529.13
2023-12-29T21:17:49.186Z,100531.00
2023-12-29T21:20:20.306Z,100528.31
2023-12-29T21:22:50.518Z,100530.09
2023-12-29T21:25:18.684Z,100514.31
2023-12-29T21:27:47.414Z,100520.22
2023-12-29T21:30:17.633Z,100554.03
2023-12-29T21:32:47.785Z,100618.59
2023-12-29T21:35:16.356Z,100609.84
2023-12-29T21:37:44.399Z,100593.13
2023-12-29T21:40:13.472Z,100592.75
2023-12-29T21:42:41.584Z,100593.22
2023-12-29T21:45:12.856Z,100580.16
2023-12-29T21:47:44.249Z,100570.13
2023-12-29T21:50:14.489Z,100580.56
2023-12-29T21:52:42.730Z,100572.56
2023-12-29T21:55:11.157Z,100579.78
2023-12-29T21:57:39.408Z,100587.59
2023-12-29T22:00:13.972Z,100592.06
2023-12-29T22:02:42.255Z,100594.69
2023-12-29T22:05:10.837Z,100593.00
2023-12-29T22:07:41.177Z,100607.59
2023-12-29T22:10:10.727Z,100583.38
2023-12-29T22:12:39.103Z,100597.41
2023-12-29T22:15:08.441Z,100593.00
2023-12-29T22:17:36.863Z,100592.41
2023-12-29T22:20:05.613Z,100591.72
2023-12-29T22:22:38.674Z,100599.78
2023-12-29T22:25:09.271Z,100627.03
2023-12-29T22:27:38.440Z,100631.84
2023-12-29T22:30:09.811Z,100611.97
2023-12-29T22:32:38.243Z,100616.41
2023-12-29T22:35:07.122Z,100606.75
2023-12-29T22:37:35.257Z,100597.97
2023-12-29T22:40:03.432Z,100609.28
2023-12-29T22:42:36.121Z,100608.22
2023-12-29T22:45:04.703Z,100608.91
2023-12-29T22:47:32.873Z,100608.75
2023-12-29T22:50:01.060Z,100612.84
2023-12-29T22:52:29.213Z,100628.41
2023-12-29T22:54:57.412Z,100630.94
2023-12-29T22:57:25.503Z,100640.94
2023-12-29T22:59:55.699Z,100653.22
2023-12-29T23:02:24.111Z,100651.38
2023-12-29T23:04:53.179Z,100646.94
2023-12-29T23:07:21.540Z,100645.03
2023-12-29T23:09:49.794Z,100645.50
2023-12-29T23:12:18.011Z,100642.97
2023-12-29T23:14:46.170Z,100632.53
2023-12-29T23:17:15.770Z,100639.66
2023-12-29T23:19:46.272Z,100632.78
2023-12-29T23:22:14.480Z,100639.00
2023-12-29T23:24:42.601Z,100650.47
2023-12-29T23:27:10.660Z,100651.47
2023-12-29T23:29:40.638Z,100653.22
2023-12-29T23:32:09.275Z,100660.44
2023-12-29T23:34:42.019Z,100669.94
2023-12-29T23:37:10.002Z,100678.63
2023-12-29T23:39:38.164Z,100673.63
2023-12-29T23:42:06.715Z,100673.84
2023-12-29T23:44:34.029Z,100669.69
2023-12-29T23:47:02.185Z,100681.13
2023-12-29T23:49:31.380Z,100680.13
2023-12-29T23:52:01.072Z,100683.72
2023-12-29T23:54:29.269Z,100683.31
2023-12-29T23:56:57.742Z,100681.78
2023-12-29T23:59:28.689Z,100687.75
